createdAt,value
2022-09-04T00:00:55.583Z,13.89
2022-09-04T00:01:55.568Z,13.92
2022-09-04T00:02:55.529Z,13.83
2022-09-04T00:03:55.715Z,13.79
2022-09-04T00:04:55.685Z,13.94
2022-09-04T00:05:55.595Z,13.96
2022-09-04T00:06:56.507Z,13.96
2022-09-04T00:07:55.528Z,14.04
2022-09-04T00:08:55.418Z,14.06
2022-09-04T00:09:55.435Z,14.01
2022-09-04T00:10:55.394Z,13.95
2022-09-04T00:11:55.388Z,13.95
2022-09-04T00:12:55.372Z,13.95
2022-09-04T00:13:55.376Z,13.92
2022-09-04T00:14:55.429Z,13.99
2022-09-04T00:15:55.364Z,13.84
2022-09-04T00:16:55.368Z,13.92
2022-09-04T00:17:55.347Z,13.89
2022-09-04T00:18:55.317Z,13.83
2022-09-04T00:19:55.752Z,13.73
2022-09-04T00:20:55.300Z,13.74
2022-09-04T00:21:55.399Z,13.76
2022-09-04T00:22:55.410Z,13.73
2022-09-04T00:23:55.583Z,13.73
2022-09-04T00:24:55.403Z,13.58
2022-09-04T00:25:55.430Z,13.59
2022-09-04T00:26:55.457Z,13.59
2022-09-04T00:27:55.380Z,13.61
2022-09-04T00:28:55.411Z,13.58
2022-09-04T00:29:55.338Z,13.76
2022-09-04T00:30:55.416Z,13.80
2022-09-04T00:31:55.342Z,13.73
2022-09-04T00:32:55.334Z,13.76
2022-09-04T00:33:56.199Z,13.62
2022-09-04T00:34:55.299Z,13.65
2022-09-04T00:35:55.345Z,13.61
2022-09-04T00:36:55.308Z,13.58
2022-09-04T00:37:56.166Z,13.51
2022-09-04T00:38:55.271Z,13.61
2022-09-04T00:39:55.358Z,13.46
2022-09-04T00:40:55.262Z,13.40
2022-09-04T00:41:55.230Z,13.47
2022-09-04T00:42:55.185Z,13.49
2022-09-04T00:43:55.219Z,13.61
2022-09-04T00:44:55.253Z,13.59
2022-09-04T00:45:55.264Z,13.62
2022-09-04T00:46:55.257Z,13.58
2022-09-04T00:47:56.163Z,13.63
2022-09-04T00:48:55.196Z,13.76
2022-09-04T00:49:55.260Z,13.56
2022-09-04T00:50:55.190Z,13.44
2022-09-04T00:51:55.139Z,13.20
2022-09-04T00:52:57.458Z,13.20
2022-09-04T00:53:55.192Z,13.14
2022-09-04T00:54:55.182Z,13.27
2022-09-04T00:55:55.148Z,13.21
2022-09-04T00:56:55.187Z,13.32
2022-09-04T00:57:55.172Z,13.33
2022-09-04T00:58:55.128Z,13.14
2022-09-04T00:59:55.126Z,13.03
2022-09-04T01:00:55.091Z,13.03
2022-09-04T01:01:55.131Z,13.02
2022-09-04T01:02:55.050Z,13.12
2022-09-04T01:03:55.008Z,13.15
2022-09-04T01:04:56.078Z,13.24
2022-09-04T01:05:55.002Z,13.24
2022-09-04T01:06:55.131Z,13.30
2022-09-04T01:07:55.094Z,13.30
2022-09-04T01:08:56.116Z,13.27
2022-09-04T01:09:55.642Z,13.25
2022-09-04T01:10:55.135Z,13.09
2022-09-04T01:11:55.025Z,12.92
2022-09-04T01:12:55.105Z,12.71
2022-09-04T01:13:55.049Z,12.82
2022-09-04T01:14:55.025Z,12.85
2022-09-04T01:15:55.018Z,12.87
2022-09-04T01:16:55.050Z,12.88
2022-09-04T01:17:54.965Z,13.03
2022-09-04T01:18:54.963Z,13.03
2022-09-04T01:19:54.868Z,13.12
2022-09-04T01:20:54.926Z,13.02
2022-09-04T01:21:54.895Z,12.96
2022-09-04T01:22:54.908Z,12.93
2022-09-04T01:23:55.096Z,12.93
2022-09-04T01:24:54.872Z,12.97
2022-09-04T01:25:54.859Z,13.09
2022-09-04T01:26:55.920Z,13.07
2022-09-04T01:27:54.858Z,13.12
2022-09-04T01:28:54.969Z,13.09
2022-09-04T01:29:54.949Z,13.07
2022-09-04T01:30:54.916Z,13.15
2022-09-04T01:31:54.982Z,13.14
2022-09-04T01:32:54.933Z,12.99
2022-09-04T01:33:54.994Z,12.92
2022-09-04T01:34:54.973Z,12.82
2022-09-04T01:35:54.932Z,12.87
2022-09-04T01:36:54.863Z,12.71
2022-09-04T01:37:54.826Z,12.67
2022-09-04T01:38:54.876Z,12.62
2022-09-04T01:39:54.927Z,12.57
2022-09-04T01:40:54.835Z,12.49
2022-09-04T01:41:54.838Z,12.46
2022-09-04T01:42:54.785Z,12.45
2022-09-04T01:43:54.731Z,12.41
2022-09-04T01:44:54.755Z,12.39
2022-09-04T01:45:54.740Z,12.33
2022-09-04T01:46:54.813Z,12.39
2022-09-04T01:47:54.733Z,12.34
2022-09-04T01:48:54.697Z,12.54
2022-09-04T01:49:54.707Z,12.46
2022-09-04T01:50:54.802Z,12.59
2022-09-04T01:51:54.690Z,12.51
2022-09-04T01:52:54.774Z,12.56
2022-09-04T01:53:54.741Z,12.60
2022-09-04T01:54:55.309Z,12.64
2022-09-04T01:55:54.792Z,12.70
2022-09-04T01:56:54.790Z,12.67
2022-09-04T01:57:54.695Z,12.77
2022-09-04T01:58:54.786Z,12.71
2022-09-04T01:59:54.687Z,12.71
2022-09-04T02:00:57.600Z,12.88
2022-09-04T02:01:54.725Z,12.79
2022-09-04T02:02:54.690Z,12.79
2022-09-04T02:03:54.676Z,12.66
2022-09-04T02:04:54.666Z,12.75
2022-09-04T02:05:54.656Z,12.71
2022-09-04T02:06:54.683Z,12.75
2022-09-04T02:07:54.651Z,12.69
2022-09-04T02:08:54.664Z,12.66
2022-09-04T02:09:54.635Z,12.56
2022-09-04T02:10:54.615Z,12.56
2022-09-04T02:11:56.945Z,12.49
2022-09-04T02:12:54.576Z,12.49
2022-09-04T02:13:54.520Z,12.42
2022-09-04T02:14:54.536Z,12.41
2022-09-04T02:15:54.704Z,12.48
2022-09-04T02:16:54.522Z,12.33
2022-09-04T02:17:54.506Z,12.39
2022-09-04T02:18:54.570Z,12.38
2022-09-04T02:19:54.607Z,12.31
2022-09-04T02:20:54.528Z,12.21
2022-09-04T02:21:54.680Z,12.19
2022-09-04T02:22:54.555Z,12.27
2022-09-04T02:23:54.543Z,12.24
2022-09-04T02:24:55.092Z,12.29
2022-09-04T02:25:54.533Z,12.21
2022-09-04T02:26:54.493Z,12.24
2022-09-04T02:27:54.582Z,12.24
2022-09-04T02:28:54.493Z,12.15
2022-09-04T02:29:54.481Z,12.15
2022-09-04T02:30:54.749Z,12.16
2022-09-04T02:31:54.470Z,12.13
2022-09-04T02:32:54.405Z,12.12
2022-09-04T02:33:54.367Z,12.12
2022-09-04T02:34:54.373Z,12.06
2022-09-04T02:35:54.452Z,11.90
2022-09-04T02:36:54.371Z,11.93
2022-09-04T02:37:54.394Z,11.94
2022-09-04T02:38:54.349Z,11.83
2022-09-04T02:39:54.490Z,11.68
2022-09-04T02:40:54.499Z,11.78
2022-09-04T02:41:54.402Z,11.70
2022-09-04T02:42:54.510Z,11.64
2022-09-04T02:43:54.389Z,11.72
2022-09-04T02:44:54.465Z,11.86
2022-09-04T02:45:54.397Z,11.93
2022-09-04T02:46:54.445Z,11.86
2022-09-04T02:47:54.376Z,11.83
2022-09-04T02:48:54.428Z,11.96
2022-09-04T02:49:54.345Z,11.87
2022-09-04T02:50:54.350Z,11.86
2022-09-04T02:51:54.245Z,11.96
2022-09-04T02:52:54.347Z,11.94
2022-09-04T02:53:54.345Z,11.96
2022-09-04T02:54:54.312Z,12.01
2022-09-04T02:55:54.312Z,12.01
2022-09-04T02:56:54.294Z,12.08
2022-09-04T02:57:54.305Z,12.01
2022-09-04T02:58:54.359Z,12.01
2022-09-04T02:59:54.278Z,12.06
2022-09-04T03:00:54.447Z,12.16
2022-09-04T03:01:54.263Z,12.23
2022-09-04T03:02:54.171Z,12.20
2022-09-04T03:04:26.177Z,12.21
2022-09-04T03:05:26.137Z,12.12
2022-09-04T03:05:54.298Z,12.15
2022-09-04T03:07:26.196Z,12.21
2022-09-04T03:07:54.126Z,12.21
2022-09-04T03:08:54.234Z,12.20
2022-09-04T03:09:54.233Z,12.09
2022-09-04T03:10:54.202Z,12.13
2022-09-04T03:11:54.214Z,12.19
2022-09-04T03:12:54.156Z,12.23
2022-09-04T03:13:54.172Z,12.19
2022-09-04T03:14:54.215Z,12.15
2022-09-04T03:15:54.839Z,12.13
2022-09-04T03:16:54.195Z,12.16
2022-09-04T03:17:54.145Z,12.13
2022-09-04T03:18:54.132Z,12.05
2022-09-04T03:19:54.136Z,12.09
2022-09-04T03:20:54.195Z,12.11
2022-09-04T03:21:54.141Z,12.06
2022-09-04T03:22:54.138Z,12.19
2022-09-04T03:23:54.045Z,12.15
2022-09-04T03:24:55.063Z,12.15
2022-09-04T03:25:54.055Z,12.12
2022-09-04T03:26:54.014Z,12.12
2022-09-04T03:27:53.995Z,12.06
2022-09-04T03:28:53.972Z,12.04
2022-09-04T03:29:54.015Z,11.97
2022-09-04T03:30:54.393Z,11.89
2022-09-04T03:31:54.021Z,11.87
2022-09-04T03:32:54.014Z,11.75
2022-09-04T03:33:53.982Z,11.74
2022-09-04T03:34:53.978Z,11.78
2022-09-04T03:35:53.951Z,11.68
2022-09-04T03:36:54.093Z,11.71
2022-09-04T03:37:54.014Z,11.62
2022-09-04T03:38:54.011Z,11.70
2022-09-04T03:39:54.023Z,11.75
2022-09-04T03:40:54.000Z,11.72
2022-09-04T03:41:54.022Z,11.65
2022-09-04T03:42:53.991Z,11.67
2022-09-04T03:43:53.970Z,11.65
2022-09-04T03:44:53.946Z,11.64
2022-09-04T03:45:53.949Z,11.82
2022-09-04T03:46:53.990Z,11.74
2022-09-04T03:47:53.971Z,11.85
2022-09-04T03:48:53.923Z,11.82
2022-09-04T03:49:53.951Z,11.93
2022-09-04T03:50:53.913Z,11.87
2022-09-04T03:51:53.892Z,11.89
2022-09-04T03:52:53.986Z,11.86
2022-09-04T03:53:53.887Z,11.93
2022-09-04T03:54:53.913Z,11.96
2022-09-04T03:55:53.909Z,11.90
2022-09-04T03:56:53.875Z,11.89
2022-09-04T03:57:53.819Z,11.80
2022-09-04T03:58:53.812Z,11.80
2022-09-04T03:59:53.848Z,11.53
2022-09-04T04:00:53.813Z,11.52
2022-09-04T04:01:53.730Z,11.44
2022-09-04T04:02:53.813Z,11.34
2022-09-04T04:03:53.707Z,11.39
2022-09-04T04:04:53.747Z,11.44
2022-09-04T04:05:54.750Z,11.53
2022-09-04T04:06:53.752Z,11.46
2022-09-04T04:07:53.791Z,11.44
2022-09-04T04:08:53.860Z,11.41
2022-09-04T04:09:53.769Z,11.49
2022-09-04T04:10:53.830Z,11.53
2022-09-04T04:11:53.954Z,11.47
2022-09-04T04:12:53.848Z,11.50
2022-09-04T04:13:53.804Z,11.59
2022-09-04T04:14:53.828Z,11.64
2022-09-04T04:15:53.785Z,11.59
2022-09-04T04:16:56.176Z,11.53
2022-09-04T04:17:53.731Z,11.57
2022-09-04T04:18:53.746Z,11.47
2022-09-04T04:19:53.712Z,11.56
2022-09-04T04:20:53.720Z,11.46
2022-09-04T04:21:53.721Z,11.44
2022-09-04T04:22:54.273Z,11.47
2022-09-04T04:23:53.745Z,11.43
2022-09-04T04:24:53.717Z,11.36
2022-09-04T04:25:53.662Z,11.20
2022-09-04T04:26:54.980Z,11.21
2022-09-04T04:27:54.643Z,11.03
2022-09-04T04:28:53.581Z,10.96
2022-09-04T04:29:53.640Z,10.91
2022-09-04T04:30:53.568Z,10.74
2022-09-04T04:31:53.598Z,10.77
2022-09-04T04:32:54.535Z,10.70
2022-09-04T04:33:53.533Z,10.71
2022-09-04T04:34:53.835Z,10.63
2022-09-04T04:35:53.559Z,10.59
2022-09-04T04:36:53.521Z,10.63
2022-09-04T04:37:53.533Z,10.63
2022-09-04T04:38:53.595Z,10.63
2022-09-04T04:39:53.625Z,10.62
2022-09-04T04:40:53.605Z,10.63
2022-09-04T04:41:53.538Z,10.73
2022-09-04T04:42:54.567Z,10.81
2022-09-04T04:43:53.519Z,10.89
2022-09-04T04:44:53.532Z,10.89
2022-09-04T04:45:53.611Z,10.96
2022-09-04T04:46:53.597Z,10.98
2022-09-04T04:47:53.503Z,11.06
2022-09-04T04:48:53.513Z,11.16
2022-09-04T04:49:53.530Z,11.14
2022-09-04T04:50:53.520Z,11.16
2022-09-04T04:51:53.485Z,11.13
2022-09-04T04:52:53.394Z,11.09
2022-09-04T04:53:53.389Z,11.20
2022-09-04T04:54:53.384Z,11.13
2022-09-04T04:55:53.467Z,11.11
2022-09-04T04:56:53.357Z,11.13
2022-09-04T04:57:53.354Z,11.24
2022-09-04T04:58:53.472Z,11.03
2022-09-04T04:59:53.447Z,11.03
2022-09-04T05:00:53.500Z,11.09
2022-09-04T05:01:53.647Z,11.09
2022-09-04T05:02:53.449Z,11.13
2022-09-04T05:03:53.441Z,11.14
2022-09-04T05:04:53.404Z,11.20
2022-09-04T05:05:53.348Z,10.98
2022-09-04T05:06:53.419Z,11.02
2022-09-04T05:07:53.377Z,11.21
2022-09-04T05:08:53.369Z,11.13
2022-09-04T05:09:53.383Z,11.16
2022-09-04T05:10:53.326Z,11.16
2022-09-04T05:11:53.390Z,11.20
2022-09-04T05:12:53.389Z,11.20
2022-09-04T05:13:53.335Z,11.20
2022-09-04T05:14:53.377Z,11.06
2022-09-04T05:16:08.431Z,11.19
2022-09-04T05:16:56.130Z,11.16
2022-09-04T05:17:54.349Z,11.16
2022-09-04T05:18:53.303Z,11.14
2022-09-04T05:19:53.219Z,11.31
2022-09-04T05:20:53.197Z,11.34
2022-09-04T05:21:53.179Z,11.36
2022-09-04T05:22:53.174Z,11.43
2022-09-04T05:23:53.205Z,11.41
2022-09-04T05:24:55.774Z,11.44
2022-09-04T05:25:53.159Z,11.43
2022-09-04T05:26:53.172Z,11.46
2022-09-04T05:27:53.146Z,11.52
2022-09-04T05:28:53.161Z,11.49
2022-09-04T05:29:53.161Z,11.56
2022-09-04T05:30:53.261Z,11.56
2022-09-04T05:31:53.784Z,11.54
2022-09-04T05:32:53.206Z,11.61
2022-09-04T05:33:53.320Z,11.47
2022-09-04T05:34:53.782Z,11.36
2022-09-04T05:35:53.194Z,11.43
2022-09-04T05:36:53.172Z,11.50
2022-09-04T05:37:53.147Z,11.47
2022-09-04T05:38:53.514Z,11.54
2022-09-04T05:39:53.194Z,11.54
2022-09-04T05:40:54.184Z,11.67
2022-09-04T05:41:53.038Z,11.62
2022-09-04T06:58:46.376Z,14.75
2022-09-04T07:00:19.512Z,14.90
2022-09-04T07:00:47.428Z,14.91
2022-09-04T07:02:19.899Z,15.20
2022-09-04T07:03:19.548Z,15.26
2022-09-04T07:04:19.472Z,15.31
2022-09-04T07:05:19.455Z,15.52
2022-09-04T07:06:19.477Z,15.54
2022-09-04T07:07:19.423Z,15.63
2022-09-04T07:08:19.506Z,15.86
2022-09-04T07:08:47.405Z,15.96
2022-09-04T07:09:47.456Z,16.09
2022-09-04T07:10:47.436Z,16.11
2022-09-04T07:11:47.492Z,16.18
2022-09-04T07:12:47.369Z,16.34
2022-09-04T07:13:47.336Z,16.31
2022-09-04T07:14:47.416Z,16.27
2022-09-04T07:15:47.422Z,16.16
2022-09-04T07:16:47.369Z,16.25
2022-09-04T07:17:47.333Z,16.27
2022-09-04T07:18:47.307Z,16.27
2022-09-04T07:19:47.370Z,16.30
2022-09-04T07:20:48.395Z,16.30
2022-09-04T07:21:47.442Z,16.25
2022-09-04T07:22:47.427Z,16.42
2022-09-04T07:23:48.069Z,16.31
2022-09-04T07:24:47.442Z,16.35
2022-09-04T07:25:47.331Z,16.59
2022-09-04T07:26:47.327Z,16.55
2022-09-04T07:27:48.375Z,16.42
2022-09-04T07:28:47.355Z,16.41
2022-09-04T07:29:47.326Z,16.40
2022-09-04T07:30:47.291Z,16.48
2022-09-04T07:31:47.386Z,16.62
2022-09-04T07:32:47.340Z,16.68
2022-09-04T07:33:47.195Z,16.80
2022-09-04T07:34:47.206Z,16.83
2022-09-04T07:35:47.199Z,16.85
2022-09-04T07:36:47.307Z,16.77
2022-09-04T07:37:47.202Z,16.86
2022-09-04T07:38:50.663Z,16.98
2022-09-04T07:39:47.211Z,17.03
2022-09-04T07:40:47.154Z,17.11
2022-09-04T07:41:47.286Z,17.14
2022-09-04T07:42:47.604Z,17.04
2022-09-04T07:43:50.301Z,17.14
2022-09-04T07:44:49.151Z,17.38
2022-09-04T07:45:47.394Z,17.54
2022-09-04T07:46:47.208Z,17.46
2022-09-04T07:47:47.242Z,17.32
2022-09-04T07:48:47.255Z,17.20
2022-09-04T07:49:47.205Z,17.33
2022-09-04T07:50:47.174Z,17.51
2022-09-04T07:51:47.074Z,17.54
2022-09-04T07:52:47.169Z,17.70
2022-09-04T07:53:47.204Z,17.76
2022-09-04T07:54:47.109Z,17.84
2022-09-04T07:55:47.126Z,17.79
2022-09-04T07:56:47.137Z,17.85
2022-09-04T07:57:47.139Z,17.66
2022-09-04T07:58:47.042Z,17.54
2022-09-04T07:59:47.016Z,17.70
2022-09-04T08:00:47.003Z,17.82
2022-09-04T08:01:47.175Z,17.92
2022-09-04T08:02:47.057Z,18.10
2022-09-04T08:03:53.948Z,18.31
2022-09-04T08:04:48.059Z,18.27
2022-09-04T08:05:47.051Z,18.28
2022-09-04T08:06:47.107Z,18.22
2022-09-04T08:07:47.043Z,18.49
2022-09-04T08:08:47.109Z,18.64
2022-09-04T08:09:47.092Z,18.64
2022-09-04T08:10:47.084Z,18.70
2022-09-04T08:11:47.017Z,18.64
2022-09-04T08:12:47.029Z,18.59
2022-09-04T08:13:47.053Z,18.67
2022-09-04T08:14:47.063Z,18.87
2022-09-04T08:15:47.070Z,19.01
2022-09-04T08:16:47.033Z,19.14
2022-09-04T08:17:47.018Z,19.10
2022-09-04T08:18:47.011Z,19.24
2022-09-04T08:19:47.026Z,19.36
2022-09-04T08:20:47.072Z,19.47
2022-09-04T08:21:46.979Z,19.51
2022-09-04T08:22:46.848Z,19.50
2022-09-04T08:23:46.865Z,19.65
2022-09-04T08:24:47.081Z,19.58
2022-09-04T08:25:46.899Z,19.70
2022-09-04T08:26:46.819Z,19.63
2022-09-04T08:27:46.829Z,19.94
2022-09-04T08:28:46.834Z,19.86
2022-09-04T08:29:46.836Z,19.87
2022-09-04T08:30:46.941Z,20.00
2022-09-04T08:31:46.936Z,19.98
2022-09-04T08:32:46.870Z,19.98
2022-09-04T08:33:46.876Z,20.10
2022-09-04T08:34:46.873Z,20.05
2022-09-04T08:35:46.867Z,20.02
2022-09-04T08:36:46.942Z,20.09
2022-09-04T08:37:46.874Z,20.10
2022-09-04T08:38:46.862Z,20.08
2022-09-04T08:39:46.915Z,20.16
2022-09-04T08:40:46.854Z,20.03
2022-09-04T08:41:46.894Z,20.12
2022-09-04T08:42:46.839Z,20.09
2022-09-04T08:43:46.821Z,20.24
2022-09-04T08:44:46.744Z,20.30
2022-09-04T08:45:46.694Z,20.41
2022-09-04T08:46:47.466Z,20.42
2022-09-04T08:47:46.665Z,20.46
2022-09-04T08:48:47.662Z,20.47
2022-09-04T08:49:46.670Z,20.35
2022-09-04T08:50:46.692Z,20.46
2022-09-04T08:51:46.732Z,20.46
2022-09-04T08:52:46.664Z,20.61
2022-09-04T08:53:46.628Z,20.68
2022-09-04T08:54:46.812Z,20.77
2022-09-04T08:55:47.354Z,20.89
2022-09-04T08:56:46.748Z,20.81
2022-09-04T08:57:46.682Z,20.86
2022-09-04T08:58:48.065Z,21.04
2022-09-04T08:59:47.710Z,21.14
2022-09-04T09:00:46.669Z,21.13
2022-09-04T09:01:46.723Z,21.23
2022-09-04T09:02:46.782Z,21.27
2022-09-04T09:03:46.658Z,21.39
2022-09-04T09:04:46.675Z,21.42
2022-09-04T09:05:46.636Z,21.45
2022-09-04T09:06:46.700Z,21.54
2022-09-04T09:07:46.832Z,21.63
2022-09-04T09:08:46.550Z,21.69
2022-09-04T09:09:46.550Z,21.57
2022-09-04T09:10:46.504Z,21.71
2022-09-04T09:11:46.497Z,21.74
2022-09-04T09:12:46.548Z,21.82
2022-09-04T09:13:46.494Z,21.78
2022-09-04T09:14:46.515Z,21.72
2022-09-04T09:15:46.501Z,21.69
2022-09-04T09:16:46.524Z,21.61
2022-09-04T09:17:46.644Z,21.74
2022-09-04T09:18:46.551Z,21.85
2022-09-04T09:19:46.573Z,22.06
2022-09-04T09:20:46.549Z,21.97
2022-09-04T09:21:46.566Z,22.20
2022-09-04T09:22:46.501Z,22.35
2022-09-04T09:23:46.573Z,22.32
2022-09-04T09:24:46.529Z,22.38
2022-09-04T09:25:46.494Z,22.49
2022-09-04T09:26:46.504Z,22.68
2022-09-04T09:27:46.489Z,22.77
2022-09-04T09:28:46.519Z,22.93
2022-09-04T09:29:46.487Z,22.74
2022-09-04T09:30:46.537Z,22.53
2022-09-04T09:31:46.470Z,22.29
2022-09-04T09:32:46.453Z,22.46
2022-09-04T09:33:46.441Z,22.54
2022-09-04T09:34:46.359Z,22.39
2022-09-04T09:35:46.320Z,22.54
2022-09-04T09:36:46.440Z,22.49
2022-09-04T09:37:46.402Z,22.59
2022-09-04T09:38:46.502Z,22.67
2022-09-04T09:39:46.456Z,22.69
2022-09-04T09:40:46.477Z,22.52
2022-09-04T09:41:46.388Z,22.59
2022-09-04T09:42:46.406Z,22.74
2022-09-04T09:43:46.384Z,22.92
2022-09-04T09:44:46.422Z,22.82
2022-09-04T09:45:46.416Z,22.89
2022-09-04T09:46:46.396Z,22.96
2022-09-04T09:47:46.439Z,23.04
2022-09-04T09:48:46.373Z,23.22
2022-09-04T09:49:46.399Z,23.15
2022-09-04T09:50:46.337Z,23.32
2022-09-04T09:51:46.234Z,23.15
2022-09-04T09:52:46.365Z,23.17
2022-09-04T09:53:47.391Z,23.24
2022-09-04T09:54:47.343Z,23.42
2022-09-04T09:55:46.346Z,23.53
2022-09-04T09:56:52.710Z,23.76
2022-09-04T09:57:47.326Z,23.67
2022-09-04T09:58:46.186Z,23.80
2022-09-04T09:59:46.192Z,23.95
2022-09-04T10:00:46.412Z,23.92
2022-09-04T10:01:46.221Z,23.65
2022-09-04T10:02:46.245Z,23.57
2022-09-04T10:03:46.145Z,23.60
2022-09-04T10:04:46.261Z,23.45
2022-09-04T10:05:47.339Z,23.29
2022-09-04T10:06:46.238Z,23.19
2022-09-04T10:07:46.205Z,23.04
2022-09-04T10:08:46.214Z,23.19
2022-09-04T10:09:46.228Z,23.27
2022-09-04T10:10:46.260Z,23.46
2022-09-04T10:11:46.198Z,23.50
2022-09-04T10:12:46.182Z,23.55
2022-09-04T10:13:46.221Z,23.68
2022-09-04T10:14:46.230Z,23.53
2022-09-04T10:15:46.110Z,23.19
2022-09-04T10:16:46.119Z,23.29
2022-09-04T10:17:46.060Z,23.26
2022-09-04T10:18:46.067Z,23.47
2022-09-04T10:19:46.141Z,23.53
2022-09-04T10:20:46.085Z,23.64
2022-09-04T10:21:46.025Z,23.90
2022-09-04T10:22:46.013Z,23.95
2022-09-04T10:23:46.131Z,23.97
2022-09-04T10:24:46.164Z,23.86
2022-09-04T10:25:46.168Z,23.94
2022-09-04T10:26:47.130Z,24.10
2022-09-04T10:27:46.081Z,24.20
2022-09-04T10:28:46.112Z,24.27
2022-09-04T10:29:46.088Z,24.31
2022-09-04T10:30:46.153Z,24.38
2022-09-04T10:31:46.354Z,24.29
2022-09-04T10:32:46.129Z,24.27
2022-09-04T10:33:46.067Z,24.41
2022-09-04T10:34:46.041Z,24.54
2022-09-04T10:35:46.057Z,24.64
2022-09-04T10:36:46.108Z,24.52
2022-09-04T10:37:46.054Z,24.63
2022-09-04T10:38:46.055Z,24.71
2022-09-04T10:39:46.074Z,24.95
2022-09-04T10:40:49.284Z,24.97
2022-09-04T10:41:48.063Z,24.68
2022-09-04T10:42:45.895Z,24.37
2022-09-04T10:43:45.927Z,24.34
2022-09-04T10:44:45.854Z,24.37
2022-09-04T10:45:46.012Z,24.45
2022-09-04T10:46:46.006Z,24.54
2022-09-04T10:47:46.078Z,24.77
2022-09-04T10:48:46.029Z,24.94
2022-09-04T10:49:46.002Z,25.01
2022-09-04T10:50:45.970Z,24.98
2022-09-04T10:51:45.842Z,25.00
2022-09-04T10:52:45.928Z,25.05
2022-09-04T10:53:45.947Z,24.79
2022-09-04T10:54:45.905Z,24.79
2022-09-04T10:55:45.913Z,24.90
2022-09-04T10:56:45.930Z,24.87
2022-09-04T10:57:45.912Z,24.98
2022-09-04T10:58:45.868Z,24.97
2022-09-04T10:59:45.938Z,25.15
2022-09-04T11:00:45.938Z,25.17
2022-09-04T11:01:45.936Z,25.46
2022-09-04T11:02:45.974Z,25.39
2022-09-04T11:03:45.715Z,25.28
2022-09-04T11:04:45.742Z,25.32
2022-09-04T11:05:45.827Z,25.20
2022-09-04T11:06:45.694Z,25.12
2022-09-04T11:07:45.689Z,25.16
2022-09-04T11:08:45.709Z,25.22
2022-09-04T11:09:45.740Z,25.19
2022-09-04T11:10:45.711Z,25.30
2022-09-04T11:11:45.791Z,25.52
2022-09-04T11:12:45.894Z,25.47
2022-09-04T11:13:50.663Z,25.64
2022-09-04T11:14:47.665Z,25.97
2022-09-04T11:15:45.706Z,25.99
2022-09-04T11:16:45.804Z,26.15
2022-09-04T11:17:45.751Z,26.31
2022-09-04T11:18:45.795Z,26.54
2022-09-04T11:19:45.713Z,26.36
2022-09-04T11:20:45.733Z,26.24
2022-09-04T11:21:45.696Z,26.15
2022-09-04T11:22:45.721Z,26.35
2022-09-04T11:23:45.669Z,26.49
2022-09-04T11:24:45.759Z,26.43
2022-09-04T11:25:45.691Z,26.35
2022-09-04T11:26:45.685Z,26.49
2022-09-04T11:27:45.673Z,26.54
2022-09-04T11:28:45.574Z,26.79
2022-09-04T11:29:45.576Z,26.89
2022-09-04T11:30:48.019Z,26.89
2022-09-04T11:31:45.725Z,26.99
2022-09-04T11:32:45.546Z,26.84
2022-09-04T11:33:45.513Z,26.77
2022-09-04T11:34:45.668Z,26.84
2022-09-04T11:35:45.689Z,26.95
2022-09-04T11:36:45.595Z,26.92
2022-09-04T11:37:45.592Z,26.77
2022-09-04T11:38:45.588Z,26.65
2022-09-04T11:39:45.715Z,26.62
2022-09-04T11:40:45.611Z,26.61
2022-09-04T11:41:45.581Z,26.57
2022-09-04T11:42:45.557Z,26.49
2022-09-04T11:43:45.620Z,26.72
2022-09-04T11:44:45.586Z,26.89
2022-09-04T11:45:45.640Z,26.81
2022-09-04T11:46:45.569Z,26.81
2022-09-04T11:47:45.534Z,26.83
2022-09-04T11:48:45.538Z,26.87
2022-09-04T11:49:45.503Z,27.05
2022-09-04T11:50:45.542Z,27.24
2022-09-04T11:51:45.409Z,27.16
2022-09-04T11:52:45.498Z,27.05
2022-09-04T11:53:45.505Z,27.05
2022-09-04T11:54:45.389Z,26.95
2022-09-04T11:55:48.320Z,26.91
2022-09-04T11:56:46.429Z,26.89
2022-09-04T11:57:45.352Z,26.80
2022-09-04T11:58:45.345Z,26.79
2022-09-04T11:59:45.343Z,27.16
2022-09-04T12:00:45.348Z,27.19
2022-09-04T12:01:47.803Z,27.33
2022-09-04T12:02:46.346Z,27.46
2022-09-04T12:03:45.510Z,27.54
2022-09-04T12:04:45.475Z,27.47
2022-09-04T12:05:45.421Z,27.53
2022-09-04T12:06:45.445Z,27.61
2022-09-04T12:07:45.401Z,27.59
2022-09-04T12:08:45.426Z,27.67
2022-09-04T12:09:45.387Z,27.62
2022-09-04T12:10:45.378Z,27.39
2022-09-04T12:11:45.430Z,27.35
2022-09-04T12:12:45.385Z,27.35
2022-09-04T12:13:45.547Z,27.28
2022-09-04T12:14:45.371Z,27.42
2022-09-04T12:15:45.358Z,27.47
2022-09-04T12:16:45.413Z,27.29
2022-09-04T12:17:46.346Z,27.24
2022-09-04T12:18:45.199Z,27.46
2022-09-04T12:19:45.634Z,27.66
2022-09-04T12:20:45.207Z,27.71
2022-09-04T12:21:45.153Z,27.82
2022-09-04T12:22:45.324Z,27.70
2022-09-04T12:23:45.194Z,27.73
2022-09-04T12:24:45.344Z,27.77
2022-09-04T12:25:45.282Z,27.82
2022-09-04T12:26:51.534Z,28.01
2022-09-04T12:27:46.210Z,28.13
2022-09-04T12:28:45.297Z,28.23
2022-09-04T12:29:45.254Z,27.92
2022-09-04T12:30:45.479Z,27.82
2022-09-04T12:31:45.298Z,27.99
2022-09-04T12:32:46.208Z,28.13
2022-09-04T12:33:45.276Z,28.38
2022-09-04T12:34:45.205Z,28.40
2022-09-04T12:35:45.271Z,28.50
2022-09-04T12:36:45.198Z,28.72
2022-09-04T12:37:45.098Z,28.84
2022-09-04T12:38:45.153Z,28.59
2022-09-04T12:39:45.226Z,28.32
2022-09-04T12:40:45.951Z,28.07
2022-09-04T12:41:49.677Z,27.89
2022-09-04T12:42:46.070Z,27.98
2022-09-04T12:43:45.183Z,28.29
2022-09-04T12:44:45.241Z,28.03
2022-09-04T12:45:45.206Z,28.07
2022-09-04T12:46:45.744Z,27.86
2022-09-04T12:47:45.108Z,27.82
2022-09-04T12:48:45.145Z,27.92
2022-09-04T12:49:45.158Z,27.98
2022-09-04T12:50:45.095Z,28.04
2022-09-04T12:51:45.045Z,28.07
2022-09-04T12:52:45.100Z,28.25
2022-09-04T12:53:47.129Z,27.96
2022-09-04T12:54:46.134Z,28.01
2022-09-04T12:55:45.055Z,27.80
2022-09-04T12:56:45.041Z,27.91
2022-09-04T12:57:44.986Z,28.17
2022-09-04T12:58:44.979Z,28.23
2022-09-04T12:59:45.244Z,28.53
2022-09-04T13:00:46.049Z,28.65
2022-09-04T13:01:45.097Z,28.43
2022-09-04T13:02:44.956Z,28.28
2022-09-04T13:03:44.877Z,28.25
2022-09-04T13:04:44.907Z,28.35
2022-09-04T13:05:52.895Z,28.36
2022-09-04T13:06:48.273Z,28.44
2022-09-04T13:07:45.923Z,28.46
2022-09-04T13:08:45.013Z,28.56
2022-09-04T13:09:45.673Z,28.84
2022-09-04T13:10:45.873Z,29.33
2022-09-04T13:11:44.983Z,29.72
2022-09-04T13:12:44.964Z,29.97
2022-09-04T13:13:44.957Z,30.29
2022-09-04T13:14:44.937Z,30.68
2022-09-04T13:15:45.014Z,30.76
2022-09-04T13:16:44.993Z,31.26
2022-09-04T13:17:45.228Z,31.28
2022-09-04T13:18:44.920Z,31.42
2022-09-04T13:19:45.989Z,31.58
2022-09-04T13:20:44.874Z,31.64
2022-09-04T13:21:44.977Z,32.02
2022-09-04T13:22:44.941Z,32.20
2022-09-04T13:23:46.347Z,31.92
2022-09-04T13:24:44.850Z,31.55
2022-09-04T13:25:44.754Z,31.77
2022-09-04T13:26:44.777Z,31.96
2022-09-04T13:27:44.758Z,32.73
2022-09-04T13:28:44.755Z,33.20
2022-09-04T13:29:44.742Z,32.42
2022-09-04T13:30:44.744Z,31.99
2022-09-04T13:31:44.869Z,31.98
2022-09-04T13:32:44.767Z,32.80
2022-09-04T13:33:49.292Z,33.79
2022-09-04T13:34:44.722Z,34.24
2022-09-04T13:35:44.803Z,34.84
2022-09-04T13:36:44.833Z,34.98
2022-09-04T13:37:44.816Z,35.20
2022-09-04T13:38:44.794Z,35.40
2022-09-04T13:39:44.829Z,35.26
2022-09-04T13:40:44.814Z,35.29
2022-09-04T13:41:44.778Z,35.02
2022-09-04T13:42:44.846Z,35.40
2022-09-04T13:43:44.760Z,34.44
2022-09-04T13:44:44.763Z,34.17
2022-09-04T13:45:44.750Z,34.13
2022-09-04T13:46:44.822Z,34.64
2022-09-04T13:47:44.789Z,35.23
2022-09-04T13:48:44.730Z,35.60
2022-09-04T13:49:44.756Z,34.94
2022-09-04T13:50:44.695Z,35.39
2022-09-04T13:51:44.635Z,35.97
2022-09-04T13:52:44.662Z,36.33
2022-09-04T13:53:44.572Z,36.77
2022-09-04T13:54:44.602Z,36.91
2022-09-04T13:55:44.721Z,36.87
2022-09-04T13:56:45.631Z,36.63
2022-09-04T13:57:44.578Z,36.07
2022-09-04T13:58:47.541Z,34.98
2022-09-04T13:59:45.616Z,33.60
2022-09-04T14:00:44.683Z,33.76
2022-09-04T14:01:45.680Z,34.22
2022-09-04T14:02:44.673Z,34.81
2022-09-04T14:03:44.915Z,34.60
2022-09-04T14:04:44.630Z,34.35
2022-09-04T14:05:44.638Z,34.22
2022-09-04T14:06:45.145Z,34.24
2022-09-04T14:07:45.230Z,34.79
2022-09-04T14:08:45.705Z,35.62